Terminal Aerodrome Forecast
Issued by NWS

Home | Current Version | Previous Version | Graphics & Text | Print | Product List | Glossary On
Versions: 1 2 3 4 5 6 7 8 9 10 11 12 13 14 15 16 17
000
FTUS43 KOAX 290520
TAFCDR
TAF
KCDR 290520Z 2906/3006 05005KT P6SM BKN005 OVC011
     FM290900 04006KT P6SM OVC003
     FM291600 07010KT 2SM -SN BR OVC003
     FM292100 06011KT 3SM -RA OVC008=

USA.gov is the U.S. government's official web portal to all federal, state and local government web resources and services.